Terminal Aerodrome Forecast
Issued by NWS Hastings, NE

Home | Current Version | Previous Version | Text Only | Print | Product List | Glossary On
Versions: 1 2 3 4 5 6 7 8 9 10 11 12 13 14 15 16 17 18
000
FTUS43 KGID 271739
TAFGRI
TAF
KGRI 271739Z 2718/2818 15014G23KT P6SM SCT050
     FM271900 15014G23KT P6SM BKN020
     FM272200 16019G28KT P6SM SCT030 SCT100
     FM280300 16018G26KT P6SM VCTS BKN050CB WS010/20045KT
     FM280900 18013KT P6SM BKN050 WS010/21040KT
     FM281100 20010KT P6SM SCT130=

USA.gov is the U.S. government's official web portal to all federal, state and local government web resources and services.